Logo AVAMET
Benvolgut visitant, si us plau, ingressa Recuperar contrasenya

Bétera la Conarda

Dades diàries. Acumulats / Últims 30 dies disponibles

Data Temperatura (°C) Humitat rel. (%) Pressió rel. (hPa) Vent (km/h) Precipitació
Mínima Mitjana Màxima Amplitud
tèrmica
Mínima Mitjana Màxima Mínima Mitjana Màxima Predom. Mitjana Ràfega
màxima
Total
(mm)
Índex-n
Mínima Mitjana Màxima Mínima Mitjana Màxima n
0 a 1
P0 max
mm 5'
Dades mensuals acumulades fins l'últim dia disponible
11/2019 8,3 12,9 19,7 17,5 17,5 22,0 28,9 20,6 29 53 77 999 1.011 1.020   56,0 0,0
Dades anuals acumulades fins l'últim dia disponible
2019 1,3 13,4 25,3 18,6 11,7 23,9 41,0 39,7 18 65 96 992 1.017 1.036   5,4 85,0 305,2
Últims 30 dies disponibles
11-11-2019 8,3     13,8     19,3 11,0 38 50 61 1.010 1.013 1.015 56,0 0,0
10-11-2019 9,1     13,5     17,9 8,8 37 54 71 1.010 1.012 1.014 55,0 0,0
09-11-2019 11,6     15,7     19,7 8,1 36 51 65 1.012 1.016 1.019 29,0 0,0
08-11-2019 8,9     13,2     17,5 8,6 36 49 61 1.009 1.013 1.017 42,0 0,0
07-11-2019 11,9     16,9     21,9 10,0 29 49 69 1.006 1.010 1.013 34,0 0,0
06-11-2019 10,4     16,4     22,3 11,9 35 51 66 1.011 1.013 1.014 23,0 0,0
05-11-2019 12,1     16,2     20,4 8,3 39 53 66 1.004 1.008 1.012 52,0 0,0
04-11-2019 16,4     19,8     23,1 6,7 45 57 69 1.004 1.007 1.010 56,0 0,0
03-11-2019 17,9     21,3     24,7 6,8 30 50 70 999 1.005 1.010 48,0 0,0
02-11-2019 19,7     23,1     26,6 6,9 45 60 74 1.003 1.008 1.012 42,0 0,0
01-11-2019 16,1     22,5     28,9 12,8 44 61 77 1.012 1.016 1.020 32,0 0,0
31-10-2019 17,5     22,3     27,1 9,6 43 59 75 1.018 1.020 1.021 16,0 0,0
30-10-2019 13,5     19,4     25,4 11,9 52 73 94 1.019 1.021 1.022 15,0 0,2
29-10-2019 12,8     19,2     25,7 12,9 50 72 94 1.015 1.017 1.019 18,0 0,2
28-10-2019 12,4     16,4     20,4 8,0 73 84 94 1.016 1.018 1.020 13,0 0,2
27-10-2019 12,6     17,6     22,7 10,1 61 77 93 1.020 1.022 1.023 19,0 0,2
26-10-2019 11,5     16,9     22,2 10,7 54 72 90 1.020 1.022 1.023 21,0 0,0
25-10-2019 11,7     17,9     24,1 12,4 41 62 83 1.020 1.022 1.023 16,0 0,0
24-10-2019 9,2     16,1     23,1 13,9 43 64 85 1.010 1.016 1.022 18,0 0,0
23-10-2019 10,1     14,5     18,9 8,8 50 69 87 1.005 1.008 1.011 32,0 0,0
22-10-2019 11,4     13,1     14,8 3,4 72 83 94 1.005 1.011 1.017 24,0 18,0 0,34 0,60
21-10-2019 9,7     14,8     19,9 10,2 46 65 83 1.015 1.017 1.018 26,0 0,0
20-10-2019 11,4     15,0     18,6 7,2 54 71 87 1.005 1.010 1.015 27,0 2,0 0,20
19-10-2019 16,8     22,1     27,3 10,5 44 62 79 1.006 1.009 1.012 34,0 0,0
18-10-2019 16,9     22,1     27,2 10,3 47 62 76 1.012 1.015 1.017 29,0 0,0
17-10-2019 13,1     20,4     27,8 14,7 32 50 68 1.014 1.016 1.017 32,0 0,0
16-10-2019 12,6     19,0     25,4 12,8 32 45 58 1.015 1.018 1.020 26,0 0,0
15-10-2019 13,1     18,2     23,4 10,3 31 48 65 1.015 1.018 1.020 31,0 0,0
14-10-2019 17,4     20,6     23,9 6,5 54 74 93 1.011 1.014 1.016 19,0 0,8 0,42 0,40
13-10-2019 17,7     21,8     25,9 8,2 66 80 93 1.015 1.017 1.018 21,0 0,2
Últims 13 mesos disponibles
10/2019 9,2 14,6 19,5 19,8 14,8 24,9 34,8 25,6 45 67 84 1.008 1.016 1.022 42,0 22,8
09/2019 14,7 18,6 22,4 23,1 20,6 27,5 34,0 19,3 58 72 81 1.011 1.018 1.025 E 0,5 70,8 107,2
08/2019 17,0 20,7 25,3 25,8 25,1 30,9 41,0 24,0 46 69 81 1.011 1.016 1.020 56,0 19,6
07/2019 19,4 20,8 23,1 26,1 27,4 31,3 36,7 17,3 50 65 78 1.005 1.014 1.021 42,0 7,2
06/2019 10,8 16,5 20,5 21,9 21,5 27,4 37,4 26,6 39 63 79 1.010 1.016 1.022 SE 0,3 52,0 0,0
05/2019 8,2 13,1 19,8 18,0 18,1 23,0 32,4 24,2 49 68 89 1.006 1.016 1.025 48,0 39,4
04/2019 6,8 10,1 13,0 15,0 14,8 19,8 29,3 22,5 50 66 86 1.002 1.013 1.026 SE 0,2 85,0 82,8
03/2019 4,8 7,8 15,3 13,7 11,7 20,0 29,2 24,4 49 60 87 1.010 1.023 1.030 SO 1,4 48,0 23,4
02/2019 1,6 5,8 10,5 11,8 11,9 17,9 25,9 24,3 39 63 78 996 1.025 1.034 77,0 0,6
01/2019 1,3 5,4 11,7 11,0 12,4 16,6 20,3 19,0 41 59 75 1.003 1.019 1.031 60,0 0,4
12/2018 4,1 7,6 11,6 13,0 14,3 18,5 24,1 20,0 51 69 82 1.008 1.025 1.031 SO 0,1 56,0 8,8
11/2018 5,5 10,2 14,3 14,1 13,6 18,0 23,9 18,4 56 75 96 1.003 1.015 1.024 45,0 149,0
10/2018 5,8 13,6 17,1 18,0 12,8 22,4 27,9 22,1 54 73 92 1.001 1.015 1.026 42,0 183,6
Tots els anys disponibles
2018 1,3 13,3 24,9 18,0 8,4 22,8 37,2 35,9 40 67 96 994 1.016 1.036 SSO 0,3 64,0 621,6
2017 -1,3 12,8 23,9 17,8 7,9 22,7 36,8 38,1 35 67 92 999 1.020 1.037 0,0 77,0 367,7
2016 2,1 13,5 24,8 18,1 10,4 22,8 36,9 34,8 58 67 77 1.011 1.016 1.021 64,0 383,2
2015 0,1 13,1 19,6 18,2 22,7 23,3 41,8 41,7 58 66 75 1.015 1.019 1.030 135,0 427,4
2014 1,2 13,7 23,9 18,5 10,1 23,3 41,2 40,0 38 65 90 993 1.016 1.033 66,0 282,4
Temperatura (°C)
Humitat relativa (%)
Velocitat del vent i ràfega màxima (km/h)
Direcció del vent (°)
Pressió (hPa)
Precipitació (mm)
Nota sobre les dades: s'avisa a l'usuari de la provisionalitat i no oficialitat d'aquestes dades
Logo AVAMET blanc
Web allotjada a Sollutia
Llicència de Creative CommonsLa web d'AVAMET i els seus continguts estan subjectes a una llicència de
Reconeixement - No Comercial - Compartir igual
Últimes estacions: Xàbia - Alt de la Granadella (Soci), Villena - Sierra de Salinas (Soci), Sueca - Centre (Inforatge), Xàbia - La Plana (Soci), Banyeres de Mariola - Molí Sol (Soci), Villena - Villa Ventín (Soci), Benissa - Convent (Soci), - - -